createdAt,value
2022-12-24T00:01:41.136Z,8.23
2022-12-24T00:04:10.271Z,6.82
2022-12-24T00:06:39.412Z,6.32
2022-12-24T00:09:11.316Z,5.68
2022-12-24T00:11:40.803Z,6.13
2022-12-24T00:14:10.087Z,5.75
2022-12-24T00:16:39.400Z,6.18
2022-12-24T00:19:08.515Z,6.05
2022-12-24T00:21:37.809Z,5.40
2022-12-24T00:24:08.673Z,6.82
2022-12-24T00:26:37.842Z,5.85
2022-12-24T00:29:07.048Z,4.55
2022-12-24T00:31:36.249Z,5.93
2022-12-24T00:34:05.425Z,6.45
2022-12-24T00:36:34.590Z,6.72
2022-12-24T00:39:03.673Z,6.00
2022-12-24T00:41:34.288Z,5.10
2022-12-24T00:44:06.263Z,6.43
2022-12-24T00:46:36.490Z,6.20
2022-12-24T00:49:06.532Z,6.80
2022-12-24T00:51:37.188Z,6.88
2022-12-24T00:54:07.126Z,6.50
2022-12-24T00:56:37.664Z,5.40
2022-12-24T00:59:06.913Z,6.10
2022-12-24T01:01:37.028Z,7.90
2022-12-24T01:04:23.775Z,5.47
2022-12-24T01:06:53.057Z,6.10
2022-12-24T01:09:22.320Z,6.57
2022-12-24T01:11:53.036Z,5.50
2022-12-24T01:14:22.317Z,6.82
2022-12-24T01:16:51.517Z,6.85
2022-12-24T01:19:20.690Z,5.75
2022-12-24T01:21:49.998Z,6.93
2022-12-24T01:24:19.574Z,5.50
2022-12-24T01:26:48.719Z,7.93
2022-12-24T01:29:19.419Z,7.53
2022-12-24T01:31:50.878Z,7.30
2022-12-24T01:34:20.369Z,8.15
2022-12-24T01:36:49.437Z,8.05
2022-12-24T01:39:18.729Z,8.02
2022-12-24T01:42:05.240Z,8.70
2022-12-24T01:44:37.531Z,8.10
2022-12-24T01:47:13.376Z,7.35
2022-12-24T01:49:46.697Z,9.00
2022-12-24T01:52:19.553Z,10.82
2022-12-24T01:54:52.067Z,7.50
2022-12-24T01:57:25.579Z,7.43
2022-12-24T02:00:00.122Z,8.82
2022-12-24T02:02:30.095Z,10.30
2022-12-24T02:05:05.215Z,9.55
2022-12-24T02:07:34.685Z,8.13
2022-12-24T02:10:05.677Z,9.07
2022-12-24T02:12:39.362Z,8.77
2022-12-24T02:15:14.458Z,8.32
2022-12-24T02:17:54.062Z,8.88
2022-12-24T02:20:52.006Z,7.60
2022-12-24T02:23:49.517Z,8.00
2022-12-24T02:26:35.403Z,8.63
2022-12-24T02:29:25.269Z,7.78
2022-12-24T02:32:03.576Z,9.90
2022-12-24T02:34:39.137Z,9.35
2022-12-24T02:37:13.633Z,10.73
2022-12-24T02:39:48.110Z,11.13
2022-12-24T02:42:24.044Z,9.57
2022-12-24T02:44:58.411Z,9.73
2022-12-24T02:47:34.243Z,8.45
2022-12-24T02:50:05.439Z,8.70
2022-12-24T02:52:37.346Z,7.28
2022-12-24T02:55:10.625Z,9.10
2022-12-24T02:57:55.036Z,9.45
2022-12-24T03:00:25.357Z,10.35
2022-12-24T03:03:13.730Z,7.70
2022-12-24T03:05:49.875Z,7.18
2022-12-24T03:08:29.454Z,9.57
2022-12-24T03:11:03.935Z,7.78
2022-12-24T03:13:33.384Z,10.98
2022-12-24T03:16:05.910Z,8.85
2022-12-24T03:18:39.588Z,8.63
2022-12-24T03:21:12.220Z,7.50
2022-12-24T03:23:41.904Z,9.00
2022-12-24T03:26:14.180Z,8.00
2022-12-24T03:28:44.648Z,9.50
2022-12-24T03:31:14.657Z,9.30
2022-12-24T03:33:45.428Z,6.70
2022-12-24T03:36:15.240Z,8.73
2022-12-24T03:38:44.600Z,7.43
2022-12-24T03:41:13.860Z,8.57
2022-12-24T03:43:42.760Z,10.15
2022-12-24T03:46:11.803Z,7.50
2022-12-24T03:48:40.899Z,8.40
2022-12-24T03:51:19.863Z,7.45
2022-12-24T03:53:49.223Z,6.53
2022-12-24T03:56:18.414Z,8.50
2022-12-24T03:58:47.454Z,8.45
2022-12-24T04:01:16.656Z,8.75
2022-12-24T04:03:45.851Z,9.63
2022-12-24T04:06:19.030Z,8.77
2022-12-24T04:08:48.374Z,9.38
2022-12-24T04:11:18.387Z,8.32
2022-12-24T04:13:47.653Z,9.27
2022-12-24T04:16:18.075Z,9.80
2022-12-24T04:18:47.576Z,7.90
2022-12-24T04:21:18.031Z,10.20
2022-12-24T04:23:48.054Z,10.32
2022-12-24T04:26:17.044Z,9.00
2022-12-24T04:28:46.101Z,7.75
2022-12-24T04:31:17.133Z,6.75
2022-12-24T04:33:46.147Z,7.78
2022-12-24T04:36:18.643Z,8.57
2022-12-24T04:38:48.785Z,8.07
2022-12-24T04:41:23.713Z,7.15
2022-12-24T04:43:55.297Z,7.40
2022-12-24T04:46:26.721Z,8.88
2022-12-24T04:48:56.424Z,7.20
2022-12-24T04:51:27.543Z,7.45
2022-12-24T04:53:57.541Z,6.70
2022-12-24T04:56:28.344Z,8.27
2022-12-24T04:58:57.783Z,7.30
2022-12-24T05:01:29.300Z,8.00
2022-12-24T05:03:58.946Z,6.97
2022-12-24T05:06:33.051Z,7.10
2022-12-24T05:09:02.506Z,9.32
2022-12-24T05:11:32.577Z,7.00
2022-12-24T05:14:01.673Z,7.43
2022-12-24T05:16:30.758Z,8.63
2022-12-24T05:19:00.316Z,7.90
2022-12-24T05:21:30.805Z,8.48
2022-12-24T05:24:17.579Z,7.97
2022-12-24T05:26:50.484Z,7.57
2022-12-24T05:29:19.864Z,8.13
2022-12-24T05:31:48.906Z,7.80
2022-12-24T05:34:18.793Z,8.27
2022-12-24T05:36:49.243Z,6.85
2022-12-24T05:39:19.543Z,7.00
2022-12-24T05:41:48.602Z,7.70
2022-12-24T05:44:17.910Z,6.50
2022-12-24T05:46:47.360Z,7.03
2022-12-24T05:49:16.797Z,6.97
2022-12-24T05:51:45.863Z,6.70
2022-12-24T05:54:16.179Z,7.22
2022-12-24T05:56:45.171Z,7.28
2022-12-24T05:59:14.610Z,5.57
2022-12-24T06:01:47.312Z,7.20
2022-12-24T06:04:16.432Z,6.72
2022-12-24T06:06:45.446Z,9.05
2022-12-24T06:09:17.089Z,6.80
2022-12-24T06:11:46.023Z,7.40
2022-12-24T06:14:15.121Z,7.47
2022-12-24T06:16:45.375Z,7.38
2022-12-24T06:19:14.475Z,7.63
2022-12-24T06:21:43.348Z,7.85
2022-12-24T06:24:12.312Z,7.57
2022-12-24T06:26:42.596Z,7.93
2022-12-24T06:29:11.764Z,7.53
2022-12-24T06:31:41.001Z,6.78
2022-12-24T06:34:09.940Z,8.15
2022-12-24T06:36:38.746Z,6.80
2022-12-24T06:39:07.718Z,7.45
2022-12-24T06:41:36.565Z,6.38
2022-12-24T06:44:07.204Z,7.90
2022-12-24T06:46:36.128Z,8.18
2022-12-24T06:49:05.280Z,9.13
2022-12-24T06:51:34.066Z,8.93
2022-12-24T06:54:02.905Z,7.53
2022-12-24T06:56:31.869Z,8.73
2022-12-24T06:59:05.324Z,8.05
2022-12-24T07:01:36.253Z,9.27
2022-12-24T07:04:05.367Z,9.23
2022-12-24T07:06:34.427Z,8.80
2022-12-24T07:09:03.280Z,9.60
2022-12-24T07:11:32.223Z,7.43
2022-12-24T07:14:01.108Z,7.70
2022-12-24T07:16:30.047Z,7.80
2022-12-24T07:19:00.708Z,7.30
2022-12-24T07:21:29.614Z,8.57
2022-12-24T07:23:58.479Z,9.63
2022-12-24T07:26:27.523Z,7.15
2022-12-24T07:28:56.393Z,8.88
2022-12-24T07:31:25.382Z,8.75
2022-12-24T07:33:54.537Z,9.10
2022-12-24T07:36:25.011Z,8.77
2022-12-24T07:38:53.977Z,6.85
2022-12-24T07:41:23.204Z,7.45
2022-12-24T07:43:52.138Z,7.63
2022-12-24T07:46:21.196Z,6.78
2022-12-24T07:48:50.098Z,7.43
2022-12-24T07:51:18.919Z,7.68
2022-12-24T07:53:49.217Z,9.13
2022-12-24T07:56:18.694Z,7.07
2022-12-24T07:58:47.696Z,7.60
2022-12-24T08:01:16.599Z,7.10
2022-12-24T08:03:46.129Z,8.18
2022-12-24T08:06:15.288Z,6.55
2022-12-24T08:08:44.222Z,7.10
2022-12-24T08:11:14.682Z,7.25
2022-12-24T08:13:44.071Z,8.00
2022-12-24T08:16:13.125Z,7.35
2022-12-24T08:18:42.068Z,6.35
2022-12-24T08:21:11.142Z,7.50
2022-12-24T08:23:40.095Z,7.50
2022-12-24T08:26:10.058Z,6.95
2022-12-24T08:28:40.530Z,6.53
2022-12-24T08:31:09.832Z,8.80
2022-12-24T08:33:38.858Z,7.53
2022-12-24T08:36:08.127Z,7.50
2022-12-24T08:38:37.009Z,8.23
2022-12-24T08:41:06.855Z,7.72
2022-12-24T08:43:35.695Z,7.90
2022-12-24T08:46:07.334Z,7.75
2022-12-24T08:48:37.639Z,9.00
2022-12-24T08:51:09.775Z,7.65
2022-12-24T08:53:39.248Z,7.28
2022-12-24T08:56:10.530Z,8.07
2022-12-24T08:58:39.828Z,7.80
2022-12-24T09:01:15.142Z,9.40
2022-12-24T09:03:44.928Z,8.15
2022-12-24T09:06:14.931Z,8.40
2022-12-24T09:08:44.156Z,7.85
2022-12-24T09:11:14.906Z,7.88
2022-12-24T09:13:44.764Z,5.35
2022-12-24T09:16:15.237Z,6.72
2022-12-24T09:18:44.541Z,7.60
2022-12-24T09:21:17.524Z,7.13
2022-12-24T09:23:48.526Z,7.65
2022-12-24T09:26:19.242Z,7.07
2022-12-24T09:28:48.217Z,6.68
2022-12-24T09:31:18.966Z,6.88
2022-12-24T09:33:49.422Z,6.93
2022-12-24T09:36:18.701Z,6.88
2022-12-24T09:38:48.425Z,8.80
2022-12-24T09:41:25.895Z,7.65
2022-12-24T09:44:00.017Z,7.20
2022-12-24T09:46:35.443Z,7.90
2022-12-24T09:49:07.580Z,6.45
2022-12-24T09:51:41.956Z,7.32
2022-12-24T09:54:17.417Z,7.97
2022-12-24T09:56:48.956Z,7.03
2022-12-24T09:59:22.658Z,7.55
2022-12-24T10:01:55.800Z,8.48
2022-12-24T10:04:30.911Z,7.55
2022-12-24T10:07:14.280Z,6.55
2022-12-24T10:09:55.846Z,8.77
2022-12-24T10:12:38.182Z,8.55
2022-12-24T10:15:19.789Z,8.00
2022-12-24T10:18:06.974Z,9.95
2022-12-24T10:20:45.655Z,7.82
2022-12-24T10:23:21.861Z,8.57
2022-12-24T10:26:00.733Z,8.10
2022-12-24T10:28:46.997Z,9.35
2022-12-24T10:31:16.817Z,9.85
2022-12-24T10:33:53.468Z,10.20
2022-12-24T10:36:28.003Z,10.65
2022-12-24T10:38:57.833Z,10.38
2022-12-24T10:41:29.075Z,10.50
2022-12-24T10:44:00.150Z,9.27
2022-12-24T10:46:36.749Z,9.27
2022-12-24T10:49:09.238Z,10.35
2022-12-24T10:51:45.158Z,11.20
2022-12-24T10:54:24.466Z,9.25
2022-12-24T10:56:59.779Z,9.90
2022-12-24T10:59:31.755Z,10.80
2022-12-24T11:02:02.188Z,19.65
2022-12-24T11:04:34.928Z,16.13
2022-12-24T11:07:06.431Z,16.00
2022-12-24T11:09:37.489Z,13.77
2022-12-24T11:12:20.168Z,15.30
2022-12-24T11:14:49.856Z,15.23
2022-12-24T11:17:24.390Z,13.50
2022-12-24T11:19:54.883Z,13.93
2022-12-24T11:22:27.061Z,12.18
2022-12-24T11:25:03.865Z,10.50
2022-12-24T11:27:40.173Z,10.80
2022-12-24T11:30:25.215Z,9.05
2022-12-24T11:33:19.948Z,29.83
2022-12-24T11:35:56.709Z,10.50
2022-12-24T11:38:28.052Z,8.27
2022-12-24T11:41:02.983Z,8.77
2022-12-24T11:43:48.180Z,11.55
2022-12-24T11:46:21.435Z,8.80
2022-12-24T11:49:08.374Z,10.43
2022-12-24T11:51:39.726Z,10.10
2022-12-24T11:54:17.784Z,8.50
2022-12-24T11:56:50.449Z,8.35
2022-12-24T11:59:29.244Z,9.13
2022-12-24T12:02:03.777Z,8.43
2022-12-24T12:04:36.508Z,9.20
2022-12-24T12:07:15.181Z,9.02
2022-12-24T12:09:55.244Z,9.43
2022-12-24T12:12:31.632Z,9.38
2022-12-24T12:15:06.949Z,7.22
2022-12-24T12:17:48.351Z,8.57
2022-12-24T12:20:25.432Z,7.07
2022-12-24T12:23:04.119Z,7.80
2022-12-24T12:25:42.485Z,8.43
2022-12-24T12:28:19.336Z,8.32
2022-12-24T12:30:59.561Z,8.20
2022-12-24T12:33:36.434Z,7.75
2022-12-24T12:36:10.071Z,8.95
2022-12-24T12:38:41.739Z,7.47
2022-12-24T12:41:26.414Z,7.63
2022-12-24T12:44:34.809Z,6.95
2022-12-24T12:47:23.339Z,7.10
2022-12-24T12:50:02.774Z,7.45
2022-12-24T12:52:50.013Z,7.38
2022-12-24T12:55:33.784Z,7.30
2022-12-24T12:58:06.239Z,7.03
2022-12-24T13:00:42.644Z,7.85
2022-12-24T13:03:44.265Z,7.20
2022-12-24T13:06:39.766Z,8.95
2022-12-24T13:09:29.737Z,7.50
2022-12-24T13:12:31.268Z,6.63
2022-12-24T13:15:41.637Z,6.45
2022-12-24T13:18:45.399Z,6.72
2022-12-24T13:21:21.444Z,6.60
2022-12-24T13:23:51.106Z,7.82
2022-12-24T13:26:20.377Z,6.75
2022-12-24T13:28:51.002Z,7.20
2022-12-24T13:31:30.316Z,6.57
2022-12-24T13:34:04.286Z,7.78
2022-12-24T13:37:07.116Z,7.30
2022-12-24T13:40:15.430Z,7.63
2022-12-24T13:43:07.476Z,6.43
2022-12-24T13:45:51.799Z,8.13
2022-12-24T13:48:32.596Z,6.45
2022-12-24T13:51:18.615Z,7.45
2022-12-24T13:53:49.980Z,6.33
2022-12-24T13:56:27.911Z,7.30
2022-12-24T13:59:18.408Z,7.07
2022-12-24T14:01:49.210Z,9.00
2022-12-24T14:04:27.677Z,7.77
2022-12-24T14:07:00.092Z,8.10
2022-12-24T14:09:31.684Z,6.40
2022-12-24T14:12:50.111Z,8.30
2022-12-24T14:16:07.046Z,8.00
2022-12-24T14:18:41.112Z,7.27
2022-12-24T14:21:19.079Z,5.97
2022-12-24T14:23:55.306Z,4.43
2022-12-24T14:26:28.848Z,5.77
2022-12-24T14:29:01.250Z,4.80
2022-12-24T14:31:30.351Z,5.20
2022-12-24T14:34:10.536Z,7.70
2022-12-24T14:36:40.216Z,5.90
2022-12-24T14:39:23.379Z,9.87
2022-12-24T14:42:02.611Z,10.10
2022-12-24T14:44:40.803Z,6.43
2022-12-24T14:47:24.252Z,5.53
2022-12-24T14:50:10.399Z,6.70
2022-12-24T14:55:41.728Z,5.00
2022-12-24T14:58:28.826Z,6.53
2022-12-24T15:01:00.100Z,6.10
2022-12-24T15:03:39.098Z,5.20
2022-12-24T15:06:13.433Z,5.13
2022-12-24T15:08:50.498Z,5.80
2022-12-24T15:11:21.468Z,5.57
2022-12-24T15:13:53.886Z,5.00
2022-12-24T15:16:32.637Z,4.82
2022-12-24T15:19:05.155Z,4.70
2022-12-24T15:21:41.474Z,5.50
2022-12-24T15:24:26.757Z,5.45
2022-12-24T15:26:56.094Z,5.38
2022-12-24T15:29:27.080Z,5.22
2022-12-24T15:31:57.650Z,5.30
2022-12-24T15:34:31.939Z,5.07
2022-12-24T15:37:09.098Z,5.35
2022-12-24T15:39:39.772Z,5.25
2022-12-24T15:42:18.137Z,6.90
2022-12-24T15:44:58.342Z,6.40
2022-12-24T15:47:37.766Z,5.82
2022-12-24T15:50:16.293Z,5.38
2022-12-24T15:52:47.165Z,4.90
2022-12-24T15:55:30.601Z,5.90
2022-12-24T15:57:59.627Z,5.68
2022-12-24T16:00:31.444Z,5.45
2022-12-24T16:03:18.005Z,5.57
2022-12-24T16:05:47.434Z,4.70
2022-12-24T16:08:33.990Z,6.22
2022-12-24T16:11:25.350Z,5.00
2022-12-24T16:14:02.373Z,5.70
2022-12-24T16:16:38.161Z,6.75
2022-12-24T16:19:08.522Z,4.95
2022-12-24T16:21:40.121Z,5.03
2022-12-24T16:24:20.176Z,6.38
2022-12-24T16:26:49.616Z,6.10
2022-12-24T16:29:19.694Z,5.40
2022-12-24T16:31:53.218Z,6.05
2022-12-24T16:34:25.505Z,6.78
2022-12-24T16:36:55.009Z,5.40
2022-12-24T16:39:29.335Z,6.40
2022-12-24T16:42:17.950Z,6.22
2022-12-24T16:44:47.776Z,7.45
2022-12-24T16:47:19.625Z,7.80
2022-12-24T16:49:48.697Z,7.60
2022-12-24T16:52:21.502Z,7.47
2022-12-24T16:54:52.242Z,7.28
2022-12-24T16:57:21.836Z,7.88
2022-12-24T16:59:51.058Z,5.90
2022-12-24T17:02:22.530Z,7.03
2022-12-24T17:04:51.821Z,7.13
2022-12-24T17:07:22.562Z,7.18
2022-12-24T17:09:53.004Z,6.95
2022-12-24T17:12:22.037Z,8.07
2022-12-24T17:14:51.219Z,6.82
2022-12-24T17:17:25.431Z,8.30
2022-12-24T17:19:54.406Z,7.40
2022-12-24T17:22:23.522Z,8.45
2022-12-24T17:24:53.719Z,8.30
2022-12-24T17:27:23.120Z,8.80
2022-12-24T17:29:52.285Z,7.10
2022-12-24T17:32:21.252Z,7.25
2022-12-24T17:34:50.158Z,8.30
2022-12-24T17:37:19.130Z,9.05
2022-12-24T17:39:48.295Z,8.68
2022-12-24T17:42:18.522Z,7.78
2022-12-24T17:44:47.464Z,9.13
2022-12-24T17:47:16.506Z,8.02
2022-12-24T17:49:45.409Z,7.32
2022-12-24T17:52:14.371Z,7.25
2022-12-24T17:54:43.354Z,8.52
2022-12-24T17:57:12.248Z,8.38
2022-12-24T17:59:42.665Z,8.30
2022-12-24T18:02:13.122Z,9.02
2022-12-24T18:04:42.239Z,10.32
2022-12-24T18:07:11.211Z,11.60
2022-12-24T18:09:40.329Z,10.68
2022-12-24T18:12:09.349Z,7.22
2022-12-24T18:14:39.554Z,9.65
2022-12-24T18:17:09.885Z,8.48
2022-12-24T18:19:38.751Z,9.35
2022-12-24T18:22:07.675Z,8.55
2022-12-24T18:24:37.151Z,9.40
2022-12-24T18:27:06.222Z,9.55
2022-12-24T18:29:35.257Z,8.68
2022-12-24T18:32:04.280Z,7.85
2022-12-24T18:34:35.009Z,8.32
2022-12-24T18:37:04.102Z,9.00
2022-12-24T18:39:33.033Z,6.90
2022-12-24T18:42:01.880Z,7.97
2022-12-24T18:44:31.085Z,8.98
2022-12-24T18:47:00.046Z,8.20
2022-12-24T18:49:29.340Z,8.77
2022-12-24T18:51:59.636Z,8.68
2022-12-24T18:54:28.607Z,6.22
2022-12-24T18:56:57.565Z,8.73
2022-12-24T18:59:26.502Z,6.95
2022-12-24T19:01:55.718Z,6.45
2022-12-24T19:04:25.022Z,7.25
2022-12-24T19:06:53.965Z,7.50
2022-12-24T19:09:24.526Z,6.57
2022-12-24T19:11:53.462Z,6.78
2022-12-24T19:14:22.378Z,6.60
2022-12-24T19:16:51.462Z,7.85
2022-12-24T19:19:24.166Z,7.15
2022-12-24T19:21:53.205Z,6.75
2022-12-24T19:24:23.531Z,7.53
2022-12-24T19:26:52.547Z,8.25
2022-12-24T19:29:21.506Z,6.60
2022-12-24T19:31:50.354Z,7.88
2022-12-24T19:34:19.571Z,6.80
2022-12-24T19:36:48.929Z,6.65
2022-12-24T19:39:17.929Z,7.03
2022-12-24T19:41:48.208Z,6.45
2022-12-24T19:44:17.106Z,6.50
2022-12-24T19:46:45.969Z,8.20
2022-12-24T19:49:14.895Z,7.15
2022-12-24T19:51:43.934Z,6.95
2022-12-24T19:54:19.004Z,6.88
2022-12-24T19:56:49.777Z,5.25
2022-12-24T19:59:18.829Z,6.38
2022-12-24T20:01:48.207Z,6.15
2022-12-24T20:04:18.896Z,6.53
2022-12-24T20:06:47.745Z,5.95
2022-12-24T20:09:16.660Z,6.70
2022-12-24T20:11:45.699Z,6.15
2022-12-24T20:14:16.068Z,8.18
2022-12-24T20:16:45.044Z,5.57
2022-12-24T20:19:16.032Z,4.90
2022-12-24T20:21:45.044Z,6.90
2022-12-24T20:24:14.146Z,5.35
2022-12-24T20:26:43.070Z,6.43
2022-12-24T20:29:14.404Z,5.72
2022-12-24T20:31:43.462Z,5.55
2022-12-24T20:34:12.787Z,4.93
2022-12-24T20:36:41.892Z,5.35
2022-12-24T20:39:13.574Z,6.45
2022-12-24T20:41:42.626Z,5.60
2022-12-24T20:44:14.279Z,4.90
2022-12-24T20:46:43.228Z,4.23
2022-12-24T20:49:13.309Z,6.55
2022-12-24T20:51:42.173Z,5.53
2022-12-24T20:54:12.911Z,4.45
2022-12-24T20:56:41.819Z,4.65
2022-12-24T20:59:10.685Z,3.80
2022-12-24T21:01:41.346Z,4.38
2022-12-24T21:04:11.723Z,3.92
2022-12-24T21:06:40.737Z,5.20
2022-12-24T21:09:09.779Z,5.40
2022-12-24T21:11:56.152Z,4.10
2022-12-24T21:14:28.010Z,5.95
2022-12-24T21:16:58.339Z,4.00
2022-12-24T21:19:27.625Z,3.97
2022-12-24T21:21:56.611Z,4.90
2022-12-24T21:24:25.511Z,3.80
2022-12-24T21:26:54.415Z,3.20
2022-12-24T21:29:23.363Z,4.05
2022-12-24T21:31:52.232Z,4.18
2022-12-24T21:34:23.657Z,4.03
2022-12-24T21:36:54.750Z,4.55
2022-12-24T21:39:23.718Z,4.50
2022-12-24T21:41:52.724Z,5.20
2022-12-24T21:44:21.623Z,4.15
2022-12-24T21:46:50.543Z,3.85
2022-12-24T21:49:36.857Z,4.32
2022-12-24T21:52:07.430Z,4.57
2022-12-24T21:54:35.505Z,4.20
2022-12-24T21:57:23.935Z,4.55
2022-12-24T21:59:54.415Z,3.63
2022-12-24T22:02:26.759Z,4.75
2022-12-24T22:04:56.012Z,5.10
2022-12-24T22:07:46.282Z,4.45
2022-12-24T22:10:33.338Z,4.13
2022-12-24T22:13:06.248Z,5.75
2022-12-24T22:15:35.754Z,4.35
2022-12-24T22:18:04.836Z,4.10
2022-12-24T22:20:33.705Z,5.00
2022-12-24T22:23:04.208Z,3.85
2022-12-24T22:25:33.720Z,5.00
2022-12-24T22:28:03.297Z,5.32
2022-12-24T22:30:32.365Z,6.25
2022-12-24T22:33:01.353Z,6.00
2022-12-24T22:35:30.635Z,4.97
2022-12-24T22:38:00.421Z,5.00
2022-12-24T22:40:31.482Z,5.25
2022-12-24T22:43:00.536Z,5.10
2022-12-24T22:45:29.398Z,5.47
2022-12-24T22:47:58.373Z,5.38
2022-12-24T22:50:27.990Z,6.30
2022-12-24T22:52:56.982Z,5.78
2022-12-24T22:55:25.915Z,5.75
2022-12-24T22:57:59.274Z,5.47
2022-12-24T23:00:43.563Z,6.40
2022-12-24T23:03:13.189Z,6.20
2022-12-24T23:05:42.940Z,5.45
2022-12-24T23:08:13.157Z,4.68
2022-12-24T23:10:42.728Z,6.22
2022-12-24T23:13:32.008Z,5.32
2022-12-24T23:16:04.132Z,5.85
2022-12-24T23:18:33.405Z,5.05
2022-12-24T23:21:06.598Z,7.53
2022-12-24T23:23:37.470Z,7.38
2022-12-24T23:26:08.292Z,7.53
2022-12-24T23:28:41.377Z,5.97
2022-12-24T23:31:11.074Z,5.57
2022-12-24T23:33:40.195Z,7.97
2022-12-24T23:36:10.200Z,6.95
2022-12-24T23:38:39.291Z,5.13
2022-12-24T23:41:09.811Z,6.93
2022-12-24T23:43:40.143Z,6.43
2022-12-24T23:46:09.294Z,6.40
2022-12-24T23:48:39.355Z,6.05
2022-12-24T23:51:09.706Z,6.28
2022-12-24T23:53:39.277Z,6.25
2022-12-24T23:56:10.935Z,7.05
2022-12-24T23:58:41.976Z,5.60
